Time;durP1;ratioP1;P1;durP2;ratioP2;P2;SDS_P1;SDS_P2;PMS_P1;PMS_P2;Temp;Humidity;BMP_temperature;BMP_pressure;BME280_temperature;BME280_humidity;BME280_pressure;Samples;Min_cycle;Max_cycle;Signal;HPM_P1;HPM_P2
2022/01/19 00:00:42;;;;;;;91.50;41.40;;;;;;;-1.57;81.41;100358.94;108515;1274;22570;-77
2022/01/19 00:03:10;;;;;;;92.60;40.40;;;;;;;-1.58;81.18;100355.67;108487;1274;24204;-77
2022/01/19 00:05:38;;;;;;;103.10;45.80;;;;;;;-1.58;81.07;100358.23;108481;1274;22592;-77
2022/01/19 00:08:05;;;;;;;101.00;43.20;;;;;;;-1.54;81.10;100361.54;108497;1274;22551;-76
2022/01/19 00:10:32;;;;;;;94.00;41.50;;;;;;;-1.50;81.40;100356.61;108476;1274;22553;-77
2022/01/19 00:13:00;;;;;;;73.60;31.10;;;;;;;-1.49;81.67;100351.84;108476;1274;26527;-77
2022/01/19 00:15:28;;;;;;;80.10;33.40;;;;;;;-1.50;81.94;100341.91;108492;1274;22559;-77
2022/01/19 00:17:57;;;;;;;92.40;35.20;;;;;;;-1.52;81.80;100339.50;108520;1274;22704;-78
2022/01/19 00:20:28;;;;;;;74.40;33.90;;;;;;;-1.52;81.60;100347.19;108497;1274;22551;-76
2022/01/19 00:22:55;;;;;;;68.40;29.80;;;;;;;-1.52;81.41;100345.14;108493;1274;22545;-76
2022/01/19 00:25:22;;;;;;;89.40;36.30;;;;;;;-1.52;81.48;100338.64;108439;1273;22552;-77
2022/01/19 00:27:50;;;;;;;79.30;36.70;;;;;;;-1.47;81.35;100334.78;108515;1274;26743;-75
2022/01/19 00:30:17;;;;;;;87.90;36.30;;;;;;;-1.43;81.41;100337.38;108509;1274;22559;-76
2022/01/19 00:32:44;;;;;;;72.20;30.40;;;;;;;-1.41;81.75;100339.61;108516;1274;22626;-75
2022/01/19 00:35:12;;;;;;;79.50;33.70;;;;;;;-1.42;81.97;100340.96;108489;1274;22547;-77
2022/01/19 00:37:41;;;;;;;73.40;29.20;;;;;;;-1.43;81.84;100339.93;108520;1274;22553;-77
2022/01/19 00:40:12;;;;;;;70.00;30.50;;;;;;;-1.43;81.58;100340.11;108496;1274;22550;-78
2022/01/19 00:42:39;;;;;;;66.10;29.10;;;;;;;-1.43;81.49;100346.26;108498;1274;22707;-77
2022/01/19 00:45:07;;;;;;;74.20;29.90;;;;;;;-1.41;81.43;100355.33;108446;1273;22617;-77
2022/01/19 00:47:34;;;;;;;78.10;31.10;;;;;;;-1.37;81.27;100354.02;108492;1274;22555;-76
2022/01/19 00:50:02;;;;;;;69.40;27.60;;;;;;;-1.33;81.45;100351.66;108496;1274;22552;-77
2022/01/19 00:52:29;;;;;;;62.80;25.00;;;;;;;-1.30;81.91;100348.10;108577;1274;25403;-78
2022/01/19 00:54:56;;;;;;;59.50;25.50;;;;;;;-1.32;81.92;100350.98;108539;1274;22555;-77
2022/01/19 00:57:23;;;;;;;65.20;25.50;;;;;;;-1.33;81.85;100347.89;108471;1273;22564;-77
2022/01/19 00:59:52;;;;;;;63.20;25.70;;;;;;;-1.32;81.69;100345.35;108445;1273;22701;-77
2022/01/19 01:02:19;;;;;;;74.30;27.20;;;;;;;-1.32;81.50;100341.92;108555;1274;22637;-78
2022/01/19 01:04:46;;;;;;;62.00;24.50;;;;;;;-1.32;81.27;100337.83;108443;1273;22643;-77
2022/01/19 01:07:13;;;;;;;54.20;22.40;;;;;;;-1.27;81.13;100337.37;108457;1274;25378;-77
2022/01/19 01:09:40;;;;;;;51.60;23.40;;;;;;;-1.22;81.27;100337.40;108492;1273;25379;-78
2022/01/19 01:12:13;;;;;;;58.20;21.20;;;;;;;-1.22;81.58;100328.86;108469;1274;22628;-77
2022/01/19 01:20:13;;;;;;;56.50;21.20;;;;;;;-1.26;81.23;100296.36;108488;1274;22591;-76
2022/01/19 01:22:41;;;;;;;53.80;21.50;;;;;;;-1.28;81.06;100284.38;108471;1274;22546;-76
2022/01/19 01:25:09;;;;;;;51.90;19.80;;;;;;;-1.30;80.84;100277.17;108508;1272;22549;-76
2022/01/19 01:27:36;;;;;;;46.50;19.30;;;;;;;-1.27;80.96;100272.42;108501;1274;22550;-75
2022/01/19 01:30:05;;;;;;;52.00;19.90;;;;;;;-1.24;81.16;100270.71;108488;1274;22546;-76
2022/01/19 01:32:32;;;;;;;42.90;17.80;;;;;;;-1.23;81.32;100259.27;108565;1274;22580;-75
2022/01/19 01:34:59;;;;;;;53.10;19.60;;;;;;;-1.25;81.49;100255.50;108452;1273;23948;-76
2022/01/19 01:37:26;;;;;;;58.90;25.00;;;;;;;-1.25;81.32;100253.27;108491;1274;23213;-75
2022/01/19 01:39:54;;;;;;;47.20;19.50;;;;;;;-1.26;81.06;100239.09;108469;1274;26932;-77
2022/01/19 01:42:21;;;;;;;47.10;19.20;;;;;;;-1.27;81.00;100235.15;108487;1274;22564;-77
2022/01/19 01:44:49;;;;;;;50.30;20.00;;;;;;;-1.27;80.67;100230.36;108496;1274;22581;-77
2022/01/19 01:47:17;;;;;;;46.20;18.00;;;;;;;-1.24;80.66;100217.90;108497;1274;25381;-77
2022/01/19 01:55:14;;;;;;;41.70;16.40;;;;;;;-1.23;81.21;100194.48;108493;1274;22626;-76
2022/01/19 01:57:42;;;;;;;43.00;17.60;;;;;;;-1.23;81.13;100199.27;108474;1274;22627;-76
2022/01/19 02:00:12;;;;;;;45.80;17.60;;;;;;;-1.24;80.88;100208.66;108426;1273;22544;-77
2022/01/19 02:02:40;;;;;;;46.10;16.10;;;;;;;-1.23;80.64;100206.96;108485;1274;22627;-76
2022/01/19 02:05:11;;;;;;;37.90;15.90;;;;;;;-1.25;80.50;100212.25;108480;1274;22558;-77
2022/01/19 02:23:56;;;;;;;38.60;14.10;;;;;;;-1.14;80.68;100203.78;108490;1274;22659;-75
2022/01/19 02:26:48;;;;;;;41.00;15.60;;;;;;;-1.14;80.46;100201.56;108492;1274;22560;-76
2022/01/19 02:29:51;;;;;;;38.30;14.90;;;;;;;-1.14;80.34;100205.66;108480;1274;22634;-75
2022/01/19 02:40:32;;;;;;;33.80;14.40;;;;;;;-1.05;80.64;100186.91;108479;1274;22577;-75
2022/01/19 02:50:42;;;;;;;37.40;13.90;;;;;;;-1.09;80.09;100170.50;108467;1274;22541;-78
2022/01/19 02:53:09;;;;;;;36.90;13.40;;;;;;;-1.11;79.89;100165.00;108477;1274;22593;-77
2022/01/19 02:55:38;;;;;;;45.60;15.30;;;;;;;-1.13;79.77;100157.45;108478;1274;22553;-76
2022/01/19 02:58:10;;;;;;;41.50;15.20;;;;;;;-1.11;79.77;100151.84;108438;1273;22546;-77
2022/01/19 03:08:58;;;;;;;38.50;14.80;;;;;;;-1.09;80.40;100126.55;108488;1274;22550;-77
2022/01/19 03:11:25;;;;;;;38.20;15.10;;;;;;;-1.09;80.22;100121.75;108506;1274;24205;-77
2022/01/19 03:13:52;;;;;;;35.00;12.40;;;;;;;-1.11;80.06;100119.17;108480;1274;22542;-77
2022/01/19 03:16:21;;;;;;;30.20;13.40;;;;;;;-1.13;79.71;100125.31;108433;1273;22563;-77
2022/01/19 03:18:49;;;;;;;37.10;15.10;;;;;;;-1.14;79.75;100125.48;108495;1274;22551;-75
2022/01/19 03:21:17;;;;;;;33.80;14.00;;;;;;;-1.09;79.70;100124.84;108501;1274;22565;-77
2022/01/19 03:23:44;;;;;;;33.00;12.80;;;;;;;-1.08;80.06;100126.89;108514;1274;22633;-75
2022/01/19 03:26:11;;;;;;;36.20;13.40;;;;;;;-1.06;80.56;100126.89;108488;1274;22549;-77
2022/01/19 03:28:38;;;;;;;38.20;15.20;;;;;;;-1.08;80.62;100127.07;108448;1274;22601;-77
2022/01/19 03:31:05;;;;;;;40.20;14.80;;;;;;;-1.10;80.43;100122.61;108429;1273;26484;-75
2022/01/19 03:33:32;;;;;;;39.40;14.70;;;;;;;-1.10;80.25;100127.05;108483;1274;22546;-75
2022/01/19 03:36:00;;;;;;;39.50;16.70;;;;;;;-1.12;80.07;100121.21;108486;1274;22560;-75
2022/01/19 03:38:27;;;;;;;36.70;16.40;;;;;;;-1.15;80.08;100123.77;108488;1274;22633;-76
2022/01/19 03:40:54;;;;;;;36.80;15.40;;;;;;;-1.16;79.86;100123.93;108463;1273;22547;-75
2022/01/19 03:43:20;;;;;;;39.50;15.20;;;;;;;-1.12;79.71;100122.77;108486;1274;22555;-75
2022/01/19 03:45:52;;;;;;;34.40;15.40;;;;;;;-1.11;80.13;100119.86;108433;1273;25439;-77
2022/01/19 03:49:11;;;;;;;141.40;56.80;;;;;;;-1.12;80.25;100117.45;108498;1274;25306;-76
2022/01/19 03:51:11;;;;;;;52.00;20.50;;;;;;;-1.16;80.48;100116.92;108417;1274;24431;-76
2022/01/19 03:53:39;;;;;;;43.90;18.40;;;;;;;-1.18;80.35;100113.85;108484;1274;22895;-78
2022/01/19 03:56:06;;;;;;;40.50;18.60;;;;;;;-1.20;80.20;100112.29;108500;1274;22852;-75
2022/01/19 03:58:35;;;;;;;42.10;17.90;;;;;;;-1.23;80.03;100107.98;108512;1274;22567;-75
2022/01/19 04:01:06;;;;;;;47.10;19.60;;;;;;;-1.26;79.92;100106.29;108534;1274;22564;-78
2022/01/19 04:04:04;;;;;;;48.90;23.50;;;;;;;-1.28;79.88;100100.12;108444;1274;22545;-74
2022/01/19 04:06:25;;;;;;;50.70;23.30;;;;;;;-1.23;79.99;100097.22;108484;1274;25368;-77
2022/01/19 04:08:53;;;;;;;40.30;20.30;;;;;;;-1.21;80.34;100090.57;108490;1274;22592;-76
2022/01/19 04:11:22;;;;;;;44.50;20.10;;;;;;;-1.22;80.58;100084.25;108515;1274;22676;-75
2022/01/19 04:14:21;;;;;;;51.20;21.60;;;;;;;-1.24;80.69;100081.14;108482;1274;22562;-75
2022/01/19 04:16:45;;;;;;;53.00;22.30;;;;;;;-1.25;80.48;100081.31;108471;1274;22611;-76
2022/01/19 04:22:01;;;;;;;54.20;21.80;;;;;;;-1.32;80.09;100081.44;108488;1274;22623;-74
2022/01/19 04:24:28;;;;;;;60.80;23.90;;;;;;;-1.35;79.98;100078.03;108497;1274;25423;-75
2022/01/19 04:27:41;;;;;;;60.20;24.00;;;;;;;-1.35;79.98;100070.33;108476;1273;22562;-75
2022/01/19 04:29:53;;;;;;;54.70;27.10;;;;;;;-1.34;80.32;100064.53;108505;1274;22573;-77
2022/01/19 04:32:28;;;;;;;77.80;37.50;;;;;;;-1.37;80.75;100061.09;108481;1274;25313;-77
2022/01/19 04:34:55;;;;;;;68.40;27.60;;;;;;;-1.41;80.81;100056.95;108484;1274;22626;-78
2022/01/19 04:37:33;;;;;;;76.10;28.90;;;;;;;-1.44;80.62;100053.71;108423;1273;22584;-78
2022/01/19 04:45:55;;;;;;;179.40;59.40;;;;;;;-1.57;80.26;100042.86;108469;1274;22567;-76
2022/01/19 05:01:59;;;;;;;236.80;76.40;;;;;;;-1.73;80.79;100024.14;108490;1274;22562;-77
2022/01/19 05:04:46;;;;;;;193.70;62.10;;;;;;;-1.77;80.48;100020.35;108474;1274;22664;-77
2022/01/19 05:07:19;;;;;;;191.50;60.80;;;;;;;-1.81;80.26;100019.14;108473;1274;22543;-78
2022/01/19 05:15:09;;;;;;;70.50;27.30;;;;;;;-1.97;80.78;100010.50;108474;1274;23112;-77
2022/01/19 05:17:36;;;;;;;125.80;43.70;;;;;;;-2.05;80.76;100010.42;108503;1274;25041;-75
2022/01/19 05:20:05;;;;;;;117.60;44.50;;;;;;;-2.11;80.65;100007.30;108484;1274;22557;-75
2022/01/19 05:22:32;;;;;;;188.10;67.80;;;;;;;-2.17;80.48;100001.48;108479;1274;25276;-77
2022/01/19 05:24:59;;;;;;;178.30;61.50;;;;;;;-2.23;80.28;99995.45;108483;1274;22557;-76
2022/01/19 05:27:26;;;;;;;116.50;42.70;;;;;;;-2.31;80.18;99991.79;108497;1274;22549;-75
2022/01/19 05:29:53;;;;;;;108.70;41.90;;;;;;;-2.32;80.32;99985.48;108456;1274;25376;-75
2022/01/19 05:32:20;;;;;;;127.00;53.70;;;;;;;-2.36;80.54;99975.73;108451;1274;22559;-75
2022/01/19 05:34:47;;;;;;;119.80;47.70;;;;;;;-2.41;81.03;99973.63;108470;1274;22551;-77
2022/01/19 05:37:14;;;;;;;95.00;36.70;;;;;;;-2.47;81.48;99969.66;108485;1274;22559;-75
2022/01/19 05:39:41;;;;;;;111.60;42.90;;;;;;;-2.53;81.12;99963.13;108473;1274;22778;-75
2022/01/19 05:42:15;;;;;;;78.30;34.90;;;;;;;-2.60;80.94;99963.92;108501;1274;22624;-75
2022/01/19 05:44:43;;;;;;;88.60;34.20;;;;;;;-2.66;80.90;99962.67;108485;1274;22563;-78
2022/01/19 05:47:12;;;;;;;87.60;37.80;;;;;;;-2.73;80.84;99962.27;108489;1274;22575;-77
2022/01/19 05:49:39;;;;;;;89.80;36.70;;;;;;;-2.78;80.79;99958.81;108501;1274;22584;-75
2022/01/19 05:52:07;;;;;;;92.10;39.00;;;;;;;-2.77;80.69;99953.70;108492;1274;22572;-75
2022/01/19 05:54:34;;;;;;;94.60;40.80;;;;;;;-2.77;81.12;99953.19;108464;1273;22569;-78
2022/01/19 05:57:01;;;;;;;87.20;35.40;;;;;;;-2.79;81.62;99954.38;108454;1273;22544;-77
2022/01/19 05:59:28;;;;;;;80.40;33.60;;;;;;;-2.83;81.77;99953.64;108423;1274;22540;-76
2022/01/19 06:01:55;;;;;;;78.70;32.40;;;;;;;-2.86;81.73;99955.83;108470;1273;22651;-77
2022/01/19 06:04:22;;;;;;;95.80;38.90;;;;;;;-2.89;81.42;99956.15;108450;1273;22711;-77
2022/01/19 06:06:51;;;;;;;77.90;32.10;;;;;;;-2.94;81.15;99960.52;108438;1273;24374;-75
2022/01/19 06:09:33;;;;;;;76.50;33.30;;;;;;;-2.97;81.08;99962.89;108453;1273;22537;-76
2022/01/19 06:12:06;;;;;;;74.90;33.50;;;;;;;-2.95;81.05;99964.27;108439;1273;22560;-75
2022/01/19 06:14:35;;;;;;;61.20;27.40;;;;;;;-2.96;81.18;99972.27;108434;1273;22560;-77
2022/01/19 06:17:04;;;;;;;50.30;22.70;;;;;;;-2.97;81.63;99973.98;108427;1273;22625;-76
2022/01/19 06:19:32;;;;;;;67.50;29.60;;;;;;;-3.02;81.95;99972.71;108433;1273;22557;-77
2022/01/19 06:21:59;;;;;;;103.10;43.90;;;;;;;-3.03;81.51;99969.45;108446;1273;22587;-75
2022/01/19 06:24:27;;;;;;;57.60;27.00;;;;;;;-3.05;81.59;99962.98;108441;1273;22571;-75
2022/01/19 06:26:54;;;;;;;63.40;28.90;;;;;;;-3.09;81.14;99965.15;108445;1273;22567;-79
2022/01/19 06:29:21;;;;;;;64.00;29.20;;;;;;;-3.11;80.96;99969.55;108446;1273;22554;-75
2022/01/19 06:31:49;;;;;;;62.50;28.90;;;;;;;-3.08;80.93;99965.84;108446;1273;22630;-74
2022/01/19 06:34:17;;;;;;;76.40;33.20;;;;;;;-3.07;81.18;99962.28;108455;1273;22600;-76
2022/01/19 06:36:44;;;;;;;66.30;28.10;;;;;;;-3.09;81.65;99960.36;108449;1273;22570;-75
2022/01/19 06:39:11;;;;;;;62.30;27.40;;;;;;;-3.13;81.53;99959.64;108437;1274;22620;-74
2022/01/19 06:41:38;;;;;;;67.40;26.60;;;;;;;-3.17;81.49;99958.08;108436;1273;22540;-74
2022/01/19 06:44:05;;;;;;;58.90;27.00;;;;;;;-3.19;81.37;99952.75;108441;1273;22570;-74
2022/01/19 06:46:32;;;;;;;67.00;30.90;;;;;;;-3.21;81.11;99944.55;108448;1273;22545;-75
2022/01/19 06:48:59;;;;;;;66.60;31.50;;;;;;;-3.23;80.93;99940.29;108434;1273;22569;-77
2022/01/19 06:51:26;;;;;;;81.30;36.40;;;;;;;-3.23;80.80;99939.61;108433;1273;22643;-74
2022/01/19 06:53:53;;;;;;;82.10;39.90;;;;;;;-3.20;80.77;99939.96;108449;1273;22716;-76
2022/01/19 06:56:20;;;;;;;80.20;35.40;;;;;;;-3.19;81.18;99944.91;108419;1273;22565;-77
2022/01/19 06:58:48;;;;;;;69.00;31.00;;;;;;;-3.20;81.46;99945.59;108460;1273;22580;-73
2022/01/19 07:01:15;;;;;;;61.30;28.80;;;;;;;-3.21;81.66;99949.84;108470;1273;22551;-75
2022/01/19 07:03:42;;;;;;;66.70;30.70;;;;;;;-3.22;81.42;99947.80;108456;1273;22554;-77
2022/01/19 07:06:11;;;;;;;73.50;31.90;;;;;;;-3.23;81.25;99945.06;108446;1273;23019;-74
2022/01/19 07:08:39;;;;;;;75.60;32.00;;;;;;;-3.25;81.35;99940.09;108440;1273;22537;-80
2022/01/19 07:11:06;;;;;;;76.90;30.10;;;;;;;-3.26;81.09;99930.02;108455;1273;22558;-76
2022/01/19 07:13:33;;;;;;;77.30;33.00;;;;;;;-3.26;81.33;99932.27;108453;1273;22544;-75
2022/01/19 07:16:00;;;;;;;77.80;35.60;;;;;;;-3.21;81.06;99929.91;108433;1273;22596;-76
2022/01/19 07:18:27;;;;;;;79.60;36.90;;;;;;;-3.17;81.21;99933.53;108450;1273;22561;-77
2022/01/19 07:20:54;;;;;;;78.90;31.90;;;;;;;-3.16;81.81;99931.34;108433;1273;23388;-75
2022/01/19 07:23:21;;;;;;;79.50;35.30;;;;;;;-3.15;81.83;99924.70;108444;1273;22626;-77
2022/01/19 07:25:48;;;;;;;79.80;32.70;;;;;;;-3.13;81.79;99915.86;108427;1273;22576;-74
2022/01/19 07:28:15;;;;;;;61.20;25.90;;;;;;;-3.11;81.56;99908.03;108441;1273;22570;-76
2022/01/19 07:30:42;;;;;;;69.70;30.30;;;;;;;-3.11;81.36;99905.14;108454;1273;22640;-76
2022/01/19 07:33:09;;;;;;;66.80;30.90;;;;;;;-3.11;81.02;99899.67;108453;1273;22634;-73
2022/01/19 07:35:36;;;;;;;69.60;26.70;;;;;;;-3.11;81.07;99899.67;108437;1273;22584;-75
2022/01/19 07:38:03;;;;;;;85.70;34.50;;;;;;;-3.09;80.82;99899.37;108445;1273;23957;-74
2022/01/19 07:40:29;;;;;;;82.90;36.40;;;;;;;-3.03;80.83;99896.52;108443;1273;22806;-75
2022/01/19 07:42:56;;;;;;;78.50;34.50;;;;;;;-2.96;81.34;99892.50;108454;1274;22549;-75
2022/01/19 07:45:23;;;;;;;80.00;30.80;;;;;;;-2.94;81.66;99889.60;108431;1274;22573;-76
2022/01/19 07:47:50;;;;;;;82.30;33.30;;;;;;;-2.93;81.83;99881.61;108457;1273;22588;-75
2022/01/19 07:50:17;;;;;;;91.10;37.20;;;;;;;-2.89;81.74;99878.41;108446;1271;22561;-76
2022/01/19 07:52:45;;;;;;;97.10;37.50;;;;;;;-2.89;81.20;99875.52;108444;1273;22594;-75
2022/01/19 07:55:11;;;;;;;71.90;32.10;;;;;;;-2.86;81.41;99874.52;108419;1273;22564;-75
2022/01/19 07:57:40;;;;;;;67.20;27.90;;;;;;;-2.85;81.09;99872.80;108438;1274;22549;-76
2022/01/19 08:00:08;;;;;;;70.50;32.80;;;;;;;-2.82;80.98;99868.91;108444;1274;22568;-76
2022/01/19 08:02:34;;;;;;;70.60;33.90;;;;;;;-2.74;80.90;99864.89;108363;1276;22697;-74
2022/01/19 08:05:02;;;;;;;70.80;32.50;;;;;;;-2.67;81.28;99861.02;108450;1273;24437;-74
2022/01/19 08:07:30;;;;;;;58.10;26.30;;;;;;;-2.62;81.47;99861.74;108439;1273;23316;-77
2022/01/19 08:09:57;;;;;;;73.20;30.70;;;;;;;-2.60;81.79;99862.11;108430;1273;22581;-76
2022/01/19 08:12:24;;;;;;;66.60;27.30;;;;;;;-2.59;81.51;99863.81;108453;1274;22567;-75
2022/01/19 08:14:51;;;;;;;68.20;30.40;;;;;;;-2.56;81.11;99866.39;108427;1273;22587;-76
2022/01/19 08:17:19;;;;;;;54.80;24.90;;;;;;;-2.56;80.85;99859.90;108437;1273;22555;-76
2022/01/19 08:19:47;;;;;;;51.30;21.80;;;;;;;-2.53;80.69;99856.35;108452;1273;22585;-75
2022/01/19 08:22:15;;;;;;;44.30;20.60;;;;;;;-2.53;80.33;99844.76;108433;1273;22570;-75
2022/01/19 08:24:41;;;;;;;48.00;21.00;;;;;;;-2.52;80.36;99834.35;108458;1271;24378;-80
2022/01/19 08:27:08;;;;;;;55.60;26.80;;;;;;;-2.47;80.43;99828.23;108411;1274;25634;-75
2022/01/19 08:29:35;;;;;;;52.50;25.50;;;;;;;-2.41;80.63;99825.37;108443;1273;22649;-74
2022/01/19 08:32:04;;;;;;;52.30;23.10;;;;;;;-2.37;80.99;99819.43;108435;1273;22620;-75
2022/01/19 08:34:32;;;;;;;39.60;17.50;;;;;;;-2.32;81.20;99819.80;108440;1273;22541;-78
2022/01/19 08:37:00;;;;;;;39.90;19.20;;;;;;;-2.32;80.61;99815.86;108438;1274;22584;-77
2022/01/19 08:39:27;;;;;;;44.50;20.10;;;;;;;-2.32;80.50;99811.27;108430;1273;22632;-78
2022/01/19 08:41:54;;;;;;;43.30;21.00;;;;;;;-2.28;80.03;99811.29;108436;1273;22639;-79
2022/01/19 08:44:22;;;;;;;46.30;20.00;;;;;;;-2.23;80.00;99798.86;108434;1274;24224;-78
2022/01/19 08:46:49;;;;;;;48.50;23.20;;;;;;;-2.19;79.60;99794.95;108453;1273;25943;-75
2022/01/19 08:49:16;;;;;;;42.70;18.00;;;;;;;-2.15;79.30;99794.96;108423;1273;22562;-77
2022/01/19 08:51:43;;;;;;;52.00;21.80;;;;;;;-2.05;79.53;99797.22;108430;1273;26567;-75
2022/01/19 08:54:11;;;;;;;66.70;26.00;;;;;;;-1.96;79.87;99791.29;108435;1274;22557;-74
2022/01/19 08:56:38;;;;;;;59.40;26.10;;;;;;;-1.89;80.11;99782.09;108418;1273;22620;-76
2022/01/19 08:59:05;;;;;;;75.10;31.00;;;;;;;-1.83;80.19;99778.52;108441;1274;22542;-77
2022/01/19 09:01:32;;;;;;;77.10;34.40;;;;;;;-1.78;79.81;99772.73;108434;1274;22578;-75
2022/01/19 09:03:59;;;;;;;106.00;38.60;;;;;;;-1.73;79.61;99771.55;108440;1274;22560;-75
2022/01/19 09:06:26;;;;;;;128.40;49.30;;;;;;;-1.69;79.07;99769.15;108439;1273;22704;-75
2022/01/19 09:08:53;;;;;;;130.10;49.70;;;;;;;-1.66;78.85;99760.97;108431;1274;22619;-77
2022/01/19 09:11:20;;;;;;;82.60;34.00;;;;;;;-1.60;78.94;99756.70;108447;1273;22645;-76
2022/01/19 09:13:48;;;;;;;74.10;29.80;;;;;;;-1.55;78.80;99762.70;108438;1274;22563;-76
2022/01/19 09:16:16;;;;;;;64.60;25.40;;;;;;;-1.53;78.29;99761.85;108437;1274;22545;-78
2022/01/19 09:18:44;;;;;;;57.30;26.10;;;;;;;-1.44;78.50;99758.61;108486;1274;22633;-76
2022/01/19 09:21:11;;;;;;;63.70;28.30;;;;;;;-1.37;79.00;99761.02;108465;1273;22579;-78
2022/01/19 09:23:38;;;;;;;52.10;24.20;;;;;;;-1.31;79.26;99755.53;108450;1273;24464;-77
2022/01/19 09:26:04;;;;;;;52.10;23.80;;;;;;;-1.26;79.32;99750.07;108452;1274;24437;-77
2022/01/19 09:28:32;;;;;;;54.80;22.60;;;;;;;-1.23;78.73;99745.45;108439;1273;22557;-74
2022/01/19 09:31:01;;;;;;;45.90;19.80;;;;;;;-1.21;78.43;99743.75;108442;1273;24437;-76
2022/01/19 09:33:30;;;;;;;49.80;22.50;;;;;;;-1.17;78.20;99742.89;108425;1273;22569;-75
2022/01/19 09:38:38;;;;;;;45.40;21.20;;;;;;;-1.12;78.19;99730.91;108456;1274;22641;-77
2022/01/19 09:41:07;;;;;;;42.40;18.90;;;;;;;-1.08;77.86;99728.19;108452;1273;22622;-77
2022/01/19 09:43:35;;;;;;;42.40;21.30;;;;;;;-1.05;77.99;99718.42;108435;1271;22692;-77
2022/01/19 09:46:03;;;;;;;47.30;22.80;;;;;;;-0.99;78.43;99713.45;108443;1273;25484;-75
2022/01/19 09:48:30;;;;;;;46.90;20.90;;;;;;;-0.90;78.78;99711.57;108436;1273;22550;-75
2022/01/19 09:50:57;;;;;;;42.10;18.20;;;;;;;-0.83;78.66;99703.52;108413;1274;22635;-77
2022/01/19 09:53:24;;;;;;;43.60;18.20;;;;;;;-0.80;78.31;99694.27;108428;1273;25484;-75
2022/01/19 09:55:51;;;;;;;43.00;20.30;;;;;;;-0.76;77.85;99690.48;108440;1273;22547;-77
2022/01/19 09:58:21;;;;;;;48.00;21.10;;;;;;;-0.76;77.76;99680.58;108447;1273;22588;-75
2022/01/19 10:00:50;;;;;;;58.00;21.50;;;;;;;-0.73;77.52;99678.19;108446;1273;22554;-77
2022/01/19 10:03:20;;;;;;;41.10;17.50;;;;;;;-0.71;77.60;99673.38;108491;1273;22660;-74
2022/01/19 10:06:14;;;;;;;36.00;16.90;;;;;;;-0.69;77.55;99668.58;108417;1273;22562;-75
2022/01/19 10:08:55;;;;;;;51.00;18.80;;;;;;;-0.64;77.53;99664.46;108429;1273;23945;-77
2022/01/19 10:16:58;;;;;;;39.50;18.00;;;;;;;-0.59;77.26;99655.88;108493;1273;22553;-77
2022/01/19 10:17:10;;;;;;;37.00;17.30;;;;;;;-0.46;77.51;99652.05;108436;1274;22608;-74
2022/01/19 10:19:41;;;;;;;39.50;18.90;;;;;;;-0.38;77.81;99652.36;108439;1273;22565;-77
2022/01/19 10:22:24;;;;;;;38.80;16.80;;;;;;;-0.30;78.09;99650.61;108443;1273;22670;-75
2022/01/19 10:24:53;;;;;;;38.70;18.30;;;;;;;-0.29;77.77;99647.36;108492;1273;22552;-75
2022/01/19 10:27:28;;;;;;;35.10;15.10;;;;;;;-0.26;77.66;99643.23;108493;1274;22553;-74
2022/01/19 10:30:03;;;;;;;39.60;20.00;;;;;;;-0.23;77.03;99644.23;108444;1274;22553;-75
2022/01/19 10:32:31;;;;;;;31.00;15.80;;;;;;;-0.24;77.08;99641.15;108453;1273;23119;-76
2022/01/19 10:35:14;;;;;;;30.60;13.90;;;;;;;-0.23;76.97;99640.30;108446;1273;22620;-77
2022/01/19 10:37:41;;;;;;;40.20;18.20;;;;;;;-0.23;76.88;99633.79;108451;1274;24227;-76
2022/01/19 10:40:15;;;;;;;25.20;12.50;;;;;;;-0.19;76.84;99627.45;108444;1273;22575;-77
2022/01/19 10:42:41;;;;;;;32.40;15.60;;;;;;;-0.15;76.59;99627.58;108452;1274;22564;-75
2022/01/19 10:45:11;;;;;;;30.50;14.80;;;;;;;-0.09;76.92;99627.05;108450;1273;25531;-77
2022/01/19 10:47:58;;;;;;;28.70;15.60;;;;;;;-0.03;77.37;99626.13;108432;1273;22613;-78
2022/01/19 10:50:28;;;;;;;26.20;13.70;;;;;;;0.01;77.48;99620.29;108448;1273;22552;-76
2022/01/19 10:52:59;;;;;;;26.80;12.50;;;;;;;-0.04;77.01;99622.55;108435;1274;22557;-74
2022/01/19 10:55:32;;;;;;;30.00;13.50;;;;;;;-0.11;76.73;99610.45;108445;1273;25469;-75
2022/01/19 10:58:00;;;;;;;;;;;;;;;-0.16;76.56;99606.19;108432;1273;22601;-74
2022/01/19 11:00:36;;;;;;;25.00;12.40;;;;;;;-0.23;76.59;99601.09;108445;1273;22723;-74
2022/01/19 11:03:18;;;;;;;33.00;14.40;;;;;;;-0.28;76.56;99596.00;108446;1273;22571;-77
2022/01/19 11:05:51;;;;;;;31.10;14.20;;;;;;;-0.31;76.61;99593.27;108447;1274;24251;-79
2022/01/19 11:08:21;;;;;;;31.80;16.00;;;;;;;-0.33;76.77;99590.02;108454;1274;22621;-77
2022/01/19 11:10:52;;;;;;;25.90;14.00;;;;;;;-0.34;77.22;99585.08;108457;1273;22561;-78
2022/01/19 11:13:30;;;;;;;39.00;17.90;;;;;;;-0.37;77.17;99579.61;108463;1274;22700;-78
2022/01/19 11:16:00;;;;;;;31.80;16.70;;;;;;;-0.39;77.00;99570.39;108434;1273;22550;-79
2022/01/19 11:18:32;;;;;;;36.70;18.00;;;;;;;-0.40;76.82;99563.20;108444;1273;22678;-79
2022/01/19 11:21:06;;;;;;;27.20;13.90;;;;;;;-0.41;76.82;99556.70;108455;1274;25503;-78
2022/01/19 11:23:42;;;;;;;30.50;16.40;;;;;;;-0.41;76.72;99551.74;108452;1274;25379;-78
2022/01/19 11:26:15;;;;;;;28.50;15.80;;;;;;;-0.40;76.80;99548.66;108460;1273;22569;-78
2022/01/19 11:28:49;;;;;;;;;;;;;;;-0.34;76.56;99549.29;108462;1273;22689;-78
2022/01/19 11:31:34;;;;;;;28.30;14.20;;;;;;;-0.26;76.62;99542.40;108413;1274;22549;-75
2022/01/19 11:34:02;;;;;;;28.20;15.90;;;;;;;-0.18;77.17;99531.21;108449;1273;22558;-75
2022/01/19 11:36:34;;;;;;;38.50;17.10;;;;;;;-0.13;77.75;99523.48;108431;1274;22573;-76
2022/01/19 11:39:08;;;;;;;32.30;15.90;;;;;;;-0.11;77.75;99512.66;108442;1274;22553;-76
2022/01/19 11:41:40;;;;;;;33.50;16.60;;;;;;;-0.05;77.47;99503.36;108431;1273;22580;-76
2022/01/19 11:44:14;;;;;;;27.00;15.20;;;;;;;-0.01;77.27;99493.92;108433;1274;23152;-75
2022/01/19 11:46:45;;;;;;;25.50;14.70;;;;;;;0.02;77.18;99489.94;108430;1274;22496;-76
2022/01/19 11:49:16;;;;;;;28.40;16.20;;;;;;;-0.01;77.09;99484.16;108429;1274;22552;-76
2022/01/19 11:52:01;;;;;;;36.40;18.20;;;;;;;0.01;76.95;99476.77;108464;1273;22551;-74
2022/01/19 11:54:30;;;;;;;33.00;15.90;;;;;;;0.02;77.12;99465.78;108438;1272;22654;-75
2022/01/19 11:57:04;;;;;;;27.10;13.10;;;;;;;0.02;76.78;99453.81;108441;1274;22550;-75
2022/01/19 11:59:34;;;;;;;32.60;17.80;;;;;;;0.02;76.60;99447.83;108439;1274;22560;-75
2022/01/19 12:02:33;;;;;;;33.30;18.10;;;;;;;0.06;76.66;99449.15;108438;1274;22665;-77
2022/01/19 12:05:10;;;;;;;37.90;17.30;;;;;;;0.07;77.13;99446.06;108433;1274;22570;-78
2022/01/19 12:07:40;;;;;;;38.30;17.20;;;;;;;0.10;77.65;99442.77;108441;1274;22560;-78
2022/01/19 12:10:42;;;;;;;30.90;17.30;;;;;;;0.11;77.48;99440.87;108456;1273;25494;-79
2022/01/19 12:13:56;;;;;;;40.20;19.90;;;;;;;0.12;77.16;99430.92;108379;1274;22570;-79
2022/01/19 12:16:35;;;;;;;32.20;15.40;;;;;;;0.15;76.73;99425.25;108439;1273;22646;-74
2022/01/19 12:19:08;;;;;;;30.00;14.30;;;;;;;0.17;76.58;99422.14;108419;1274;25419;-75
2022/01/19 12:21:58;;;;;;;36.20;15.90;;;;;;;0.18;76.17;99419.04;108429;1274;22558;-75
2022/01/19 12:24:29;;;;;;;29.70;13.50;;;;;;;0.16;75.88;99405.72;108430;1274;22586;-79
2022/01/19 12:26:58;;;;;;;32.10;14.60;;;;;;;0.17;76.20;99401.94;108421;1274;22601;-76
2022/01/19 12:29:50;;;;;;;33.20;15.00;;;;;;;0.21;76.39;99394.00;108442;1273;24431;-74
2022/01/19 12:32:17;;;;;;;29.90;14.90;;;;;;;0.24;76.88;99385.41;108386;1274;22563;-77
2022/01/19 12:34:46;;;;;;;30.10;16.30;;;;;;;0.25;76.54;99383.69;108442;1273;22564;-77
2022/01/19 12:37:38;;;;;;;34.00;16.40;;;;;;;0.26;76.05;99377.69;108422;1274;22825;-77
2022/01/19 12:40:17;;;;;;;28.90;14.40;;;;;;;0.29;75.99;99372.33;108442;1274;22609;-80
2022/01/19 12:42:44;;;;;;;27.50;13.10;;;;;;;0.31;75.26;99362.70;108434;1274;22649;-80
2022/01/19 12:45:25;;;;;;;36.20;17.80;;;;;;;0.35;75.25;99359.91;108445;1273;22632;-75